Time;durP1;ratioP1;P1;durP2;ratioP2;P2;SDS_P1;SDS_P2;PMS_P1;PMS_P2;Temp;Humidity;BMP_temperature;BMP_pressure;BME280_temperature;BME280_humidity;BME280_pressure;Samples;Min_cycle;Max_cycle;Signal;HPM_P1;HPM_P2
2022/03/04 00:00:43;;;;;;;8.60;4.43;;;4.60;99.90;;;;;;4991333;28;20453;-69
2022/03/04 00:03:11;;;;;;;9.60;5.00;;;4.60;99.90;;;;;;4992797;28;20560;-68
2022/03/04 00:05:37;;;;;;;9.43;5.33;;;4.50;99.90;;;;;;4989448;28;20923;-69
2022/03/04 00:08:05;;;;;;;11.53;5.47;;;4.40;99.90;;;;;;4987437;28;20497;-68
2022/03/04 00:10:33;;;;;;;7.07;4.97;;;4.30;99.90;;;;;;4986079;28;20816;-69
2022/03/04 00:13:00;;;;;;;10.63;4.53;;;4.30;99.90;;;;;;4988993;28;20435;-68
2022/03/04 00:15:27;;;;;;;8.70;5.57;;;4.30;99.90;;;;;;4988779;28;20974;-68
2022/03/04 00:17:54;;;;;;;6.40;4.47;;;4.20;99.90;;;;;;4989389;28;20563;-68
2022/03/04 00:20:24;;;;;;;13.33;5.80;;;4.20;99.90;;;;;;4994079;28;20477;-69
2022/03/04 00:22:51;;;;;;;11.77;6.03;;;4.20;99.90;;;;;;4980098;28;20457;-70
2022/03/04 00:25:18;;;;;;;9.20;6.27;;;4.20;99.90;;;;;;4993720;28;20428;-70
2022/03/04 00:27:46;;;;;;;12.67;4.87;;;4.20;99.90;;;;;;4997215;28;20578;-69
2022/03/04 00:30:13;;;;;;;14.87;5.97;;;4.20;99.90;;;;;;4985874;28;20452;-70
2022/03/04 00:32:40;;;;;;;6.90;5.53;;;4.20;99.90;;;;;;4987350;28;20483;-70
2022/03/04 00:35:08;;;;;;;12.70;6.43;;;4.20;99.90;;;;;;4985368;28;20458;-69
2022/03/04 00:37:34;;;;;;;11.40;5.27;;;4.00;99.90;;;;;;4988245;28;20464;-70
2022/03/04 00:40:01;;;;;;;11.33;6.03;;;3.80;99.90;;;;;;4988053;28;20478;-69
2022/03/04 00:42:28;;;;;;;9.33;6.03;;;3.90;99.90;;;;;;4984132;28;20452;-69
2022/03/04 00:44:59;;;;;;;9.97;5.27;;;4.00;99.90;;;;;;4984358;28;20976;-69
2022/03/04 00:47:26;;;;;;;8.30;4.80;;;3.90;99.90;;;;;;4980115;28;20478;-68
2022/03/04 00:49:53;;;;;;;14.73;6.70;;;3.80;99.90;;;;;;4990840;28;20521;-69
2022/03/04 00:52:20;;;;;;;10.77;6.73;;;3.80;99.90;;;;;;4985443;28;20517;-67
2022/03/04 00:54:46;;;;;;;11.10;5.60;;;3.70;99.90;;;;;;4991288;28;20432;-70
2022/03/04 00:57:13;;;;;;;9.13;5.83;;;3.60;99.90;;;;;;4991430;28;20445;-69
2022/03/04 00:59:39;;;;;;;16.07;7.60;;;3.60;99.90;;;;;;4983684;28;20424;-69
2022/03/04 01:02:07;;;;;;;14.77;5.33;;;3.40;99.90;;;;;;4987059;28;20417;-69
2022/03/04 01:04:34;;;;;;;8.47;6.43;;;3.40;99.90;;;;;;4988265;28;20446;-68
2022/03/04 01:07:01;;;;;;;15.73;9.83;;;3.40;99.90;;;;;;4991633;28;20498;-68
2022/03/04 01:09:28;;;;;;;16.27;6.47;;;3.40;99.90;;;;;;4985274;28;20460;-68
2022/03/04 01:11:54;;;;;;;8.63;6.03;;;3.50;99.90;;;;;;4985327;28;20465;-69
2022/03/04 01:14:21;;;;;;;10.70;5.90;;;3.60;99.90;;;;;;4990770;28;20491;-69
2022/03/04 01:16:48;;;;;;;12.60;5.60;;;3.60;99.90;;;;;;4986590;28;20478;-69
2022/03/04 01:19:16;;;;;;;11.50;6.60;;;3.70;99.90;;;;;;4986812;28;20464;-69
2022/03/04 01:21:42;;;;;;;8.50;5.03;;;3.50;99.90;;;;;;4988951;28;21000;-68
2022/03/04 01:24:12;;;;;;;10.60;5.87;;;3.40;99.90;;;;;;4987800;28;20420;-67
2022/03/04 01:26:39;;;;;;;16.93;7.87;;;3.40;99.90;;;;;;4984938;28;20824;-71
2022/03/04 01:29:06;;;;;;;7.37;3.73;;;3.40;99.90;;;;;;4989280;28;20919;-68
2022/03/04 01:31:33;;;;;;;11.10;7.13;;;3.30;99.90;;;;;;4992743;28;20784;-70
2022/03/04 01:33:59;;;;;;;13.70;6.67;;;3.30;99.90;;;;;;4989953;28;20893;-69
2022/03/04 01:36:32;;;;;;;11.50;5.03;;;3.30;99.90;;;;;;4991322;28;20465;-68
2022/03/04 01:38:59;;;;;;;9.93;4.63;;;3.30;99.90;;;;;;4987247;28;20609;-69
2022/03/04 01:41:26;;;;;;;11.30;6.40;;;3.40;99.90;;;;;;4988613;28;20454;-68
2022/03/04 01:43:52;;;;;;;10.23;7.47;;;3.20;99.90;;;;;;4991522;28;20454;-69
2022/03/04 01:46:23;;;;;;;12.87;5.83;;;3.20;99.90;;;;;;4987596;28;20493;-69
2022/03/04 01:48:50;;;;;;;13.10;5.50;;;3.30;99.90;;;;;;4994284;28;20488;-68
2022/03/04 01:51:16;;;;;;;13.03;5.20;;;3.30;99.90;;;;;;4989073;28;20482;-68
2022/03/04 01:53:44;;;;;;;10.90;5.80;;;3.30;99.90;;;;;;4991640;28;20458;-69
2022/03/04 01:56:11;;;;;;;11.00;5.73;;;3.10;99.90;;;;;;4993925;28;20920;-70
2022/03/04 01:58:38;;;;;;;11.97;5.33;;;3.00;99.90;;;;;;4989176;28;20879;-69
2022/03/04 02:01:05;;;;;;;12.47;6.90;;;3.00;99.90;;;;;;4992430;28;20420;-69
2022/03/04 02:03:32;;;;;;;13.63;6.07;;;2.90;99.90;;;;;;4994190;28;20443;-71
2022/03/04 02:05:59;;;;;;;10.40;6.43;;;2.90;99.90;;;;;;4984609;28;20462;-69
2022/03/04 02:08:26;;;;;;;15.00;6.20;;;2.90;99.90;;;;;;4993695;28;20570;-69
2022/03/04 02:10:54;;;;;;;8.73;5.20;;;2.80;99.90;;;;;;4990173;28;20464;-70
2022/03/04 02:13:21;;;;;;;13.67;8.47;;;2.90;99.90;;;;;;4990593;28;20502;-68
2022/03/04 02:15:48;;;;;;;10.47;5.70;;;2.90;99.90;;;;;;4995022;28;20448;-68
2022/03/04 02:18:17;;;;;;;16.00;7.90;;;2.90;99.90;;;;;;4988884;28;21367;-70
2022/03/04 02:20:46;;;;;;;7.60;6.10;;;2.90;99.90;;;;;;4989873;28;20557;-70
2022/03/04 02:23:14;;;;;;;13.20;6.30;;;2.90;99.90;;;;;;4989220;28;20510;-69
2022/03/04 02:25:42;;;;;;;18.37;6.43;;;2.90;99.90;;;;;;4992228;28;20521;-68
2022/03/04 02:28:10;;;;;;;10.90;6.27;;;3.00;99.90;;;;;;4990920;28;20944;-69
2022/03/04 02:30:37;;;;;;;6.73;5.33;;;2.90;99.90;;;;;;4991111;28;21303;-69
2022/03/04 02:33:05;;;;;;;21.73;8.23;;;2.90;99.90;;;;;;4991466;28;20469;-69
2022/03/04 02:35:33;;;;;;;12.30;5.87;;;3.00;99.90;;;;;;4994315;28;20460;-68
2022/03/04 02:38:00;;;;;;;7.30;6.57;;;2.80;99.90;;;;;;4985207;28;20447;-67
2022/03/04 02:40:28;;;;;;;19.80;6.90;;;2.60;99.90;;;;;;4988880;28;20465;-70
2022/03/04 02:42:55;;;;;;;11.17;6.10;;;2.60;99.90;;;;;;4987661;28;20429;-69
2022/03/04 02:45:22;;;;;;;20.93;7.53;;;2.60;99.90;;;;;;4990336;28;20462;-69
2022/03/04 02:47:49;;;;;;;13.57;5.90;;;2.50;99.90;;;;;;4985128;28;20461;-69
2022/03/04 02:50:16;;;;;;;12.90;6.90;;;2.30;99.90;;;;;;4990788;28;20462;-69
2022/03/04 02:52:44;;;;;;;12.20;6.90;;;2.30;99.90;;;;;;4994107;28;20504;-68
2022/03/04 02:55:11;;;;;;;20.20;6.43;;;2.20;99.90;;;;;;4989994;28;20818;-70
2022/03/04 02:57:42;;;;;;;12.17;7.47;;;2.10;99.90;;;;;;4986429;28;20510;-69
2022/03/04 03:00:09;;;;;;;11.93;5.73;;;2.20;99.90;;;;;;4988948;28;20429;-70
2022/03/04 03:02:36;;;;;;;13.20;7.67;;;2.10;99.90;;;;;;4993179;28;20867;-68
2022/03/04 03:05:03;;;;;;;11.50;7.20;;;2.10;99.90;;;;;;4984581;28;20443;-69
2022/03/04 03:07:30;;;;;;;36.60;6.40;;;2.20;99.90;;;;;;4984999;28;20596;-67
2022/03/04 03:09:57;;;;;;;16.17;6.67;;;2.30;99.90;;;;;;4991896;28;20459;-67
2022/03/04 03:12:24;;;;;;;7.80;4.90;;;2.40;99.90;;;;;;4988347;28;20450;-66
2022/03/04 03:14:52;;;;;;;9.70;5.20;;;2.40;99.90;;;;;;4990898;28;21158;-68
2022/03/04 03:17:18;;;;;;;10.13;6.20;;;2.40;99.90;;;;;;4985905;28;20456;-67
2022/03/04 03:19:45;;;;;;;17.37;6.00;;;2.20;99.90;;;;;;4989867;28;20434;-68
2022/03/04 03:22:14;;;;;;;17.70;8.33;;;2.10;99.90;;;;;;4993919;28;20472;-68
2022/03/04 03:24:40;;;;;;;14.83;5.53;;;2.10;99.90;;;;;;4987501;28;20942;-68
2022/03/04 03:27:08;;;;;;;18.70;7.23;;;2.30;99.90;;;;;;4990775;28;20448;-68
2022/03/04 03:29:34;;;;;;;15.20;5.67;;;2.30;99.90;;;;;;4983653;28;20471;-68
2022/03/04 03:32:03;;;;;;;8.87;5.13;;;2.40;99.90;;;;;;4996218;28;20456;-68
2022/03/04 03:34:30;;;;;;;15.20;7.83;;;2.40;99.90;;;;;;4988520;28;20462;-69
2022/03/04 03:36:57;;;;;;;9.80;6.30;;;2.40;99.90;;;;;;4990378;28;20441;-68
2022/03/04 03:39:23;;;;;;;12.03;6.93;;;2.40;99.90;;;;;;4990391;28;20603;-69
2022/03/04 03:41:50;;;;;;;15.23;6.47;;;2.30;99.90;;;;;;4983929;28;20540;-68
2022/03/04 03:44:17;;;;;;;18.23;8.00;;;2.10;99.90;;;;;;4987260;28;20419;-68
2022/03/04 03:46:44;;;;;;;12.03;6.67;;;1.90;99.90;;;;;;4986441;28;20444;-68
2022/03/04 03:49:12;;;;;;;6.17;5.23;;;1.80;99.90;;;;;;4982939;28;20449;-68
2022/03/04 03:51:39;;;;;;;12.87;6.73;;;1.60;99.90;;;;;;4983042;28;20470;-68
2022/03/04 03:54:05;;;;;;;5.63;5.10;;;1.60;99.90;;;;;;4988082;28;20549;-69
2022/03/04 03:56:32;;;;;;;20.63;6.50;;;1.60;99.90;;;;;;4988669;28;20474;-69
2022/03/04 03:58:59;;;;;;;14.73;7.23;;;1.60;99.90;;;;;;4982795;28;20470;-70
2022/03/04 04:01:25;;;;;;;15.57;6.43;;;1.70;99.90;;;;;;4988634;28;20523;-70
2022/03/04 04:03:52;;;;;;;14.03;6.50;;;1.90;99.90;;;;;;4992077;28;20449;-70
2022/03/04 04:06:20;;;;;;;9.73;5.30;;;1.90;99.90;;;;;;4989488;28;20481;-70
2022/03/04 04:08:47;;;;;;;20.03;9.30;;;1.80;99.90;;;;;;4985120;28;20842;-70
2022/03/04 04:11:14;;;;;;;8.20;5.27;;;1.80;99.90;;;;;;4987374;28;20472;-70
2022/03/04 04:13:40;;;;;;;10.67;6.47;;;1.90;99.90;;;;;;4989037;28;20507;-70
2022/03/04 04:16:07;;;;;;;14.87;6.40;;;1.90;99.90;;;;;;4987416;28;20468;-69
2022/03/04 04:18:35;;;;;;;9.10;5.63;;;1.80;99.90;;;;;;4986597;28;20474;-69
2022/03/04 04:21:02;;;;;;;10.67;4.83;;;1.80;99.90;;;;;;4988554;28;20429;-70
2022/03/04 04:23:30;;;;;;;11.63;8.30;;;1.70;99.90;;;;;;4991192;28;20620;-70
2022/03/04 04:25:57;;;;;;;9.43;6.07;;;1.60;99.90;;;;;;4984460;28;20457;-70
2022/03/04 04:28:25;;;;;;;14.37;7.73;;;1.60;99.90;;;;;;4989287;28;20424;-69
2022/03/04 04:30:52;;;;;;;8.23;4.80;;;1.60;99.90;;;;;;4983123;28;20572;-70
2022/03/04 04:33:19;;;;;;;10.17;6.10;;;1.60;99.90;;;;;;4986004;28;20522;-69
2022/03/04 04:35:46;;;;;;;12.20;6.07;;;1.60;99.90;;;;;;4985033;28;20932;-69
2022/03/04 04:38:13;;;;;;;12.73;6.80;;;1.60;99.90;;;;;;4990207;28;20462;-69
2022/03/04 04:40:41;;;;;;;13.80;6.60;;;1.70;99.90;;;;;;4990443;28;20453;-71
2022/03/04 04:43:07;;;;;;;9.83;4.40;;;1.60;99.90;;;;;;4986750;28;20461;-71
2022/03/04 04:45:34;;;;;;;13.53;5.67;;;1.70;99.90;;;;;;4988768;28;20692;-70
2022/03/04 04:48:01;;;;;;;12.80;5.80;;;1.70;99.90;;;;;;4987415;28;20509;-70
2022/03/04 04:50:28;;;;;;;9.27;5.17;;;1.60;99.90;;;;;;4993262;28;20496;-69
2022/03/04 04:52:54;;;;;;;10.80;5.60;;;1.60;99.90;;;;;;4989927;28;20514;-69
2022/03/04 04:55:21;;;;;;;9.77;5.40;;;1.60;99.90;;;;;;4994526;28;20558;-70
2022/03/04 04:57:49;;;;;;;16.17;7.40;;;1.70;99.90;;;;;;4988679;28;20474;-70
2022/03/04 05:00:17;;;;;;;10.30;7.23;;;1.80;99.90;;;;;;4988618;28;20436;-70
2022/03/04 05:02:45;;;;;;;27.00;6.30;;;1.80;99.90;;;;;;4989085;28;20469;-71
2022/03/04 05:05:12;;;;;;;15.83;6.47;;;1.80;99.90;;;;;;4990086;28;20994;-70
2022/03/04 05:07:39;;;;;;;11.07;4.93;;;1.80;99.90;;;;;;4985766;28;20490;-70
2022/03/04 05:10:06;;;;;;;12.67;7.10;;;1.80;99.90;;;;;;4986459;28;20578;-70
2022/03/04 05:12:33;;;;;;;17.50;5.63;;;1.80;99.90;;;;;;4989979;28;20437;-70
2022/03/04 05:15:06;;;;;;;10.63;5.63;;;1.90;99.90;;;;;;4990059;28;20543;-71
2022/03/04 05:17:32;;;;;;;16.90;6.40;;;1.80;99.90;;;;;;4989134;28;20796;-71
2022/03/04 05:19:59;;;;;;;16.00;6.10;;;1.80;99.90;;;;;;4988350;28;20477;-70
2022/03/04 05:22:26;;;;;;;21.07;7.73;;;1.80;99.90;;;;;;4990471;28;20918;-70
2022/03/04 05:24:53;;;;;;;17.07;7.50;;;1.80;99.90;;;;;;4988296;28;20873;-71
2022/03/04 05:27:20;;;;;;;14.60;6.27;;;1.80;99.90;;;;;;4987930;28;20700;-71
2022/03/04 05:29:46;;;;;;;11.43;4.80;;;1.80;99.90;;;;;;4987585;28;20958;-70
2022/03/04 05:32:14;;;;;;;13.60;7.07;;;1.80;99.90;;;;;;4988829;28;20462;-70
2022/03/04 05:34:41;;;;;;;11.60;5.73;;;1.80;99.90;;;;;;4986359;28;20531;-70
2022/03/04 05:37:08;;;;;;;26.10;8.70;;;1.80;99.90;;;;;;4988558;28;20473;-70
2022/03/04 05:39:35;;;;;;;14.73;5.87;;;1.80;99.90;;;;;;4985705;28;20440;-69
2022/03/04 05:42:01;;;;;;;13.03;6.70;;;1.70;99.90;;;;;;4988142;28;20518;-68
2022/03/04 05:44:28;;;;;;;16.20;6.80;;;1.70;99.90;;;;;;4978965;28;20541;-68
2022/03/04 05:46:55;;;;;;;18.03;7.60;;;1.60;99.90;;;;;;4998621;28;20449;-68
2022/03/04 05:49:23;;;;;;;14.97;6.57;;;1.60;99.90;;;;;;4999441;28;20453;-69
2022/03/04 05:51:50;;;;;;;11.00;6.30;;;1.60;99.90;;;;;;4992339;28;20959;-68
2022/03/04 05:54:17;;;;;;;8.27;6.37;;;1.60;99.90;;;;;;4991545;28;20999;-69
2022/03/04 05:56:43;;;;;;;10.83;5.53;;;1.70;99.90;;;;;;4997033;28;20478;-68
2022/03/04 05:59:10;;;;;;;6.30;5.00;;;1.60;99.90;;;;;;4996661;28;20871;-68
2022/03/04 06:01:37;;;;;;;10.20;5.97;;;1.60;99.90;;;;;;4997779;28;20473;-68
2022/03/04 06:04:04;;;;;;;22.57;6.50;;;1.60;99.90;;;;;;4995080;28;20490;-69
2022/03/04 06:06:32;;;;;;;15.50;8.67;;;1.60;99.90;;;;;;4994305;28;20485;-69
2022/03/04 06:08:58;;;;;;;14.33;5.60;;;1.60;99.90;;;;;;4994330;28;20881;-68
2022/03/04 06:11:25;;;;;;;13.43;6.90;;;1.60;99.90;;;;;;4995571;28;20476;-68
2022/03/04 06:13:52;;;;;;;14.60;5.37;;;1.50;99.90;;;;;;4999397;28;20435;-68
2022/03/04 06:16:20;;;;;;;13.80;7.60;;;1.40;99.90;;;;;;4999273;28;20459;-67
2022/03/04 06:18:46;;;;;;;12.10;5.90;;;1.40;99.90;;;;;;4997037;28;20456;-68
2022/03/04 06:21:13;;;;;;;17.40;8.53;;;1.20;99.90;;;;;;4994034;28;20457;-69
2022/03/04 06:23:41;;;;;;;12.10;6.00;;;1.10;99.90;;;;;;4993493;28;20476;-68
2022/03/04 06:26:08;;;;;;;15.43;6.60;;;1.20;99.90;;;;;;4992246;28;20485;-68
2022/03/04 06:28:34;;;;;;;19.90;8.13;;;1.10;99.90;;;;;;4993705;28;20941;-67
2022/03/04 06:31:01;;;;;;;18.60;8.67;;;1.10;99.90;;;;;;4994314;28;20478;-68
2022/03/04 06:33:30;;;;;;;15.50;8.40;;;1.10;99.90;;;;;;4998473;28;20464;-68
2022/03/04 06:36:01;;;;;;;10.03;7.17;;;1.20;99.90;;;;;;4999789;28;20462;-68
2022/03/04 06:38:27;;;;;;;13.60;6.57;;;1.60;99.90;;;;;;4994352;28;21159;-69
2022/03/04 06:40:56;;;;;;;22.37;7.13;;;2.00;99.90;;;;;;4991761;28;20453;-68
2022/03/04 06:43:22;;;;;;;20.37;7.13;;;2.40;99.90;;;;;;4996317;28;20425;-69
2022/03/04 06:45:49;;;;;;;12.47;6.83;;;2.50;99.90;;;;;;4994117;28;20573;-68
2022/03/04 06:48:18;;;;;;;12.30;6.23;;;2.70;99.90;;;;;;4995148;28;20559;-68
2022/03/04 06:50:44;;;;;;;12.87;6.90;;;2.90;99.90;;;;;;5000751;28;20662;-69
2022/03/04 06:53:11;;;;;;;22.50;10.93;;;3.00;99.90;;;;;;4995079;28;20756;-68
2022/03/04 06:55:38;;;;;;;14.10;7.57;;;2.90;99.90;;;;;;4996342;28;20930;-69
2022/03/04 06:58:06;;;;;;;20.30;6.47;;;2.80;99.90;;;;;;4993840;28;20935;-69
2022/03/04 07:00:33;;;;;;;13.80;6.07;;;2.80;99.90;;;;;;4991985;28;20480;-69
2022/03/04 07:02:59;;;;;;;14.47;7.23;;;2.80;99.90;;;;;;4994123;28;20436;-69
2022/03/04 07:05:27;;;;;;;13.60;7.40;;;2.90;99.90;;;;;;4991357;28;20505;-70
2022/03/04 07:07:54;;;;;;;18.03;6.90;;;3.00;99.90;;;;;;4993022;28;21101;-70
2022/03/04 07:10:22;;;;;;;11.73;7.40;;;3.10;99.90;;;;;;4995733;28;20465;-70
2022/03/04 07:12:49;;;;;;;11.80;5.90;;;3.00;99.90;;;;;;4992976;28;20449;-70
2022/03/04 07:15:19;;;;;;;24.10;8.50;;;2.90;99.90;;;;;;4985386;28;20756;-68
2022/03/04 07:17:46;;;;;;;12.40;6.63;;;2.80;99.90;;;;;;4991895;28;20544;-69
2022/03/04 07:20:13;;;;;;;16.37;6.73;;;2.70;99.90;;;;;;4992288;28;20440;-68
2022/03/04 07:22:40;;;;;;;14.53;6.10;;;2.70;99.90;;;;;;4988293;28;20469;-69
2022/03/04 07:25:08;;;;;;;14.07;7.70;;;2.70;99.90;;;;;;4993162;28;20441;-69
2022/03/04 07:27:36;;;;;;;14.03;8.33;;;2.60;99.90;;;;;;4992507;28;20456;-69
2022/03/04 07:30:04;;;;;;;8.23;5.57;;;2.60;99.90;;;;;;4992506;28;20433;-70
2022/03/04 07:32:32;;;;;;;13.43;6.60;;;2.70;99.90;;;;;;4989911;28;20456;-70
2022/03/04 07:35:02;;;;;;;17.43;6.80;;;2.70;99.90;;;;;;4996022;28;20466;-69
2022/03/04 07:37:29;;;;;;;17.10;8.60;;;2.60;99.90;;;;;;4992890;28;20522;-69
2022/03/04 07:39:55;;;;;;;11.00;5.57;;;2.60;99.90;;;;;;4992941;28;20915;-70
2022/03/04 07:42:23;;;;;;;9.20;5.63;;;2.60;99.90;;;;;;4989839;28;20433;-69
2022/03/04 07:44:50;;;;;;;3.13;2.83;;;2.70;99.90;;;;;;4991325;28;20443;-70
2022/03/04 07:47:16;;;;;;;6.23;5.17;;;2.80;99.90;;;;;;4993823;28;20448;-68
2022/03/04 07:49:44;;;;;;;10.53;4.30;;;2.60;99.90;;;;;;4992577;28;20496;-68
2022/03/04 07:52:11;;;;;;;11.60;6.10;;;2.70;99.90;;;;;;4988147;28;20530;-69
2022/03/04 07:54:38;;;;;;;21.00;10.20;;;3.00;99.90;;;;;;4993037;28;20428;-69
2022/03/04 07:57:08;;;;;;;13.50;7.47;;;3.50;99.90;;;;;;4986823;28;20505;-68
2022/03/04 07:59:35;;;;;;;21.83;9.63;;;3.80;99.90;;;;;;4991476;28;20484;-69
2022/03/04 08:02:01;;;;;;;9.83;6.70;;;3.90;99.90;;;;;;4980813;28;20548;-69
2022/03/04 08:04:28;;;;;;;21.43;9.00;;;4.10;99.90;;;;;;4991052;28;20458;-68
2022/03/04 08:06:56;;;;;;;11.33;4.97;;;4.20;99.90;;;;;;4989236;28;20981;-69
2022/03/04 08:09:23;;;;;;;17.70;6.93;;;4.10;99.90;;;;;;4989333;28;20462;-69
2022/03/04 08:11:49;;;;;;;13.53;6.53;;;4.20;99.90;;;;;;4994427;28;20480;-68
2022/03/04 08:14:17;;;;;;;19.17;7.40;;;4.30;99.90;;;;;;4991083;28;20909;-69
2022/03/04 08:16:43;;;;;;;19.63;6.03;;;4.30;99.90;;;;;;4992159;28;20547;-68
2022/03/04 08:19:10;;;;;;;12.00;7.60;;;4.80;99.90;;;;;;4986822;28;20515;-68
2022/03/04 08:21:37;;;;;;;12.20;4.63;;;4.90;99.90;;;;;;4986160;28;20537;-68
2022/03/04 08:24:06;;;;;;;19.40;9.40;;;4.90;99.90;;;;;;4988847;28;20421;-68
2022/03/04 08:26:33;;;;;;;12.70;6.30;;;5.10;99.90;;;;;;4991655;28;20556;-68
2022/03/04 08:28:59;;;;;;;7.40;4.47;;;6.10;99.90;;;;;;4994042;28;20930;-69
2022/03/04 08:31:26;;;;;;;10.30;6.83;;;6.30;99.90;;;;;;4992594;28;20464;-68
2022/03/04 08:33:53;;;;;;;11.40;3.90;;;6.00;99.90;;;;;;4990204;28;20502;-68
2022/03/04 08:36:19;;;;;;;5.83;4.60;;;6.10;99.90;;;;;;4990838;28;20499;-69
2022/03/04 08:38:47;;;;;;;6.77;4.70;;;6.20;99.90;;;;;;4983396;28;20441;-70
2022/03/04 08:41:15;;;;;;;9.80;4.90;;;6.60;99.90;;;;;;4991219;28;20432;-69
2022/03/04 08:43:42;;;;;;;11.90;5.67;;;7.20;99.90;;;;;;4987685;28;20461;-69
2022/03/04 08:46:12;;;;;;;5.77;2.90;;;7.40;99.90;;;;;;4987629;28;20535;-70
2022/03/04 08:48:39;;;;;;;10.73;5.63;;;7.80;99.90;;;;;;4989562;28;20462;-68
2022/03/04 08:51:05;;;;;;;16.60;7.60;;;8.30;99.90;;;;;;4992189;28;20513;-68
2022/03/04 08:53:32;;;;;;;18.03;7.23;;;8.90;99.90;;;;;;4987067;28;20486;-69
2022/03/04 08:55:59;;;;;;;9.10;5.07;;;9.60;99.90;;;;;;4988180;28;20455;-69
2022/03/04 08:58:26;;;;;;;15.90;8.90;;;9.70;99.90;;;;;;4988808;28;20504;-68
2022/03/04 09:00:53;;;;;;;11.00;8.70;;;9.90;99.90;;;;;;4990636;28;20946;-69
2022/03/04 09:03:20;;;;;;;15.83;7.33;;;10.80;99.90;;;;;;4992837;28;20456;-69
2022/03/04 09:05:50;;;;;;;13.40;7.00;;;10.90;99.90;;;;;;4989621;28;20592;-68
2022/03/04 09:08:16;;;;;;;23.93;9.40;;;11.70;99.90;;;;;;4990362;28;20454;-70
2022/03/04 09:10:44;;;;;;;22.93;9.20;;;11.80;99.40;;;;;;4995548;28;20942;-69
2022/03/04 09:13:11;;;;;;;14.00;9.50;;;12.20;98.50;;;;;;4986692;28;20484;-70
2022/03/04 09:15:39;;;;;;;17.13;9.43;;;13.10;96.50;;;;;;4987472;28;20978;-68
2022/03/04 09:18:05;;;;;;;18.07;9.90;;;13.80;92.30;;;;;;4988731;28;20552;-71
2022/03/04 09:20:32;;;;;;;12.80;7.87;;;13.90;91.90;;;;;;4986609;28;20795;-68
2022/03/04 09:22:59;;;;;;;16.37;10.40;;;14.60;90.00;;;;;;4984517;28;20473;-68
2022/03/04 09:25:27;;;;;;;16.03;9.30;;;14.80;84.70;;;;;;4968069;28;20699;-68
2022/03/04 09:27:54;;;;;;;16.50;11.53;;;14.40;83.40;;;;;;4993051;28;20574;-70
2022/03/04 09:30:20;;;;;;;36.87;9.80;;;14.30;80.90;;;;;;4984225;28;21010;-69
2022/03/04 09:32:49;;;;;;;15.47;7.93;;;14.50;81.90;;;;;;4987341;28;20506;-69
2022/03/04 09:35:15;;;;;;;19.27;10.23;;;14.50;78.90;;;;;;4988894;28;20469;-69
2022/03/04 09:37:42;;;;;;;23.37;11.13;;;14.30;79.20;;;;;;4995172;28;20469;-68
2022/03/04 09:40:09;;;;;;;17.30;10.97;;;14.90;78.20;;;;;;4990350;28;20465;-69
2022/03/04 09:42:36;;;;;;;13.83;8.17;;;15.20;75.40;;;;;;4991881;28;20532;-70
2022/03/04 09:45:03;;;;;;;16.33;9.57;;;15.40;76.30;;;;;;4989737;28;20893;-67
2022/03/04 09:47:31;;;;;;;14.37;8.23;;;16.50;73.40;;;;;;4994651;28;20569;-69
2022/03/04 09:50:02;;;;;;;19.83;10.80;;;17.20;69.30;;;;;;4990174;28;20442;-69
2022/03/04 09:52:30;;;;;;;19.57;9.40;;;17.40;65.40;;;;;;4988574;28;20517;-69
2022/03/04 09:54:57;;;;;;;13.20;8.77;;;17.70;62.30;;;;;;4993496;28;20473;-69
2022/03/04 09:57:24;;;;;;;14.33;9.37;;;17.80;62.40;;;;;;4985146;28;20481;-70
2022/03/04 09:59:51;;;;;;;16.00;9.60;;;17.70;59.20;;;;;;4991483;28;20458;-69
2022/03/04 10:02:18;;;;;;;22.47;11.00;;;17.10;58.70;;;;;;4993428;28;20543;-68
2022/03/04 10:04:45;;;;;;;17.43;9.00;;;17.30;59.70;;;;;;4991585;28;20476;-68
2022/03/04 10:07:15;;;;;;;17.00;9.90;;;17.90;58.20;;;;;;4992414;28;20468;-69
2022/03/04 10:09:43;;;;;;;14.90;8.70;;;18.30;60.40;;;;;;4992633;28;20453;-69
2022/03/04 10:12:12;;;;;;;15.10;9.03;;;18.40;56.00;;;;;;4990640;28;20485;-69
2022/03/04 10:14:58;;;;;;;19.33;9.40;;;18.40;55.90;;;;;;4989754;28;20532;-69
2022/03/04 10:17:25;;;;;;;13.33;8.47;;;18.40;56.10;;;;;;4987437;28;20475;-69
2022/03/04 10:19:53;;;;;;;21.73;12.63;;;18.40;55.20;;;;;;4989727;28;20438;-67
2022/03/04 10:22:22;;;;;;;17.30;11.13;;;18.70;55.40;;;;;;4983982;28;20477;-68
2022/03/04 10:24:49;;;;;;;19.60;11.77;;;19.30;54.40;;;;;;4992103;28;20512;-68
2022/03/04 10:27:18;;;;;;;20.10;12.20;;;19.80;53.70;;;;;;4991542;28;21011;-68
2022/03/04 10:29:46;;;;;;;18.87;10.63;;;20.20;52.20;;;;;;4990760;28;20887;-68
2022/03/04 10:32:18;;;;;;;19.67;10.50;;;19.50;51.80;;;;;;4987254;28;20478;-69
2022/03/04 10:34:51;;;;;;;18.23;9.90;;;20.00;52.60;;;;;;4990059;28;21166;-68
2022/03/04 10:37:21;;;;;;;17.00;10.30;;;20.30;51.60;;;;;;4990255;28;20478;-68
2022/03/04 10:39:59;;;;;;;20.30;10.83;;;20.60;49.70;;;;;;4987269;28;20469;-69
2022/03/04 10:42:41;;;;;;;20.70;11.20;;;20.60;50.10;;;;;;4988948;28;20615;-69
2022/03/04 10:45:09;;;;;;;15.00;10.00;;;20.70;49.70;;;;;;4994766;28;20476;-69
2022/03/04 10:47:44;;;;;;;18.40;10.53;;;20.80;49.30;;;;;;4992757;28;20465;-70
2022/03/04 10:50:11;;;;;;;17.37;11.73;;;20.60;48.20;;;;;;4987039;28;20461;-68
2022/03/04 10:52:50;;;;;;;17.60;13.03;;;20.30;48.10;;;;;;4992259;28;21071;-69
2022/03/04 10:55:39;;;;;;;16.03;11.47;;;20.70;50.40;;;;;;4992464;28;20970;-69
2022/03/04 10:58:08;;;;;;;19.23;11.97;;;20.20;48.40;;;;;;4994104;28;20478;-68
2022/03/04 11:00:36;;;;;;;21.37;12.70;;;20.20;48.70;;;;;;4992893;28;20540;-69
2022/03/04 11:03:05;;;;;;;18.10;10.80;;;20.30;49.00;;;;;;4996151;28;20438;-69
2022/03/04 11:05:32;;;;;;;20.77;11.27;;;19.50;49.10;;;;;;4992071;28;20821;-68
2022/03/04 11:08:00;;;;;;;24.33;13.00;;;19.20;49.60;;;;;;4994273;28;20473;-69
2022/03/04 11:10:27;;;;;;;23.30;11.80;;;19.60;50.40;;;;;;4990511;28;21364;-68
2022/03/04 11:12:55;;;;;;;20.90;12.47;;;19.80;49.10;;;;;;4989068;28;20485;-68
2022/03/04 11:15:24;;;;;;;23.40;12.90;;;20.20;50.00;;;;;;4993140;28;20462;-68
2022/03/04 11:17:51;;;;;;;19.80;11.50;;;20.50;48.70;;;;;;4990104;28;20879;-68
2022/03/04 11:20:18;;;;;;;19.50;10.33;;;20.80;48.10;;;;;;4991221;28;20442;-68
2022/03/04 11:22:49;;;;;;;18.57;12.83;;;20.70;48.20;;;;;;4989318;28;20445;-67
2022/03/04 11:25:21;;;;;;;21.40;10.67;;;20.70;47.90;;;;;;4988599;28;20849;-69
2022/03/04 11:27:50;;;;;;;19.37;12.10;;;21.10;47.40;;;;;;4990380;28;20477;-68
2022/03/04 11:30:37;;;;;;;24.50;13.60;;;20.50;47.70;;;;;;4990641;28;20458;-68
2022/03/04 11:33:16;;;;;;;15.30;10.87;;;20.90;46.90;;;;;;4992336;28;20486;-71
2022/03/04 11:36:05;;;;;;;23.10;14.00;;;21.80;47.40;;;;;;4988922;28;20465;-68
2022/03/04 11:38:59;;;;;;;21.60;14.37;;;22.10;46.50;;;;;;4991594;28;20445;-68
2022/03/04 11:41:39;;;;;;;16.70;10.60;;;22.40;46.00;;;;;;4989374;28;20453;-68
2022/03/04 11:44:18;;;;;;;18.40;12.53;;;21.80;44.80;;;;;;4990415;28;20578;-68
2022/03/04 11:46:51;;;;;;;29.40;13.67;;;21.30;45.60;;;;;;4989991;28;20487;-69
2022/03/04 11:49:44;;;;;;;22.20;12.50;;;21.00;46.00;;;;;;5000117;28;20516;-69
2022/03/04 11:52:25;;;;;;;17.00;10.93;;;20.60;46.70;;;;;;4991689;28;20538;-69
2022/03/04 11:55:23;;;;;;;23.37;11.70;;;21.20;46.30;;;;;;4999142;28;20901;-69
2022/03/04 11:58:00;;;;;;;18.33;9.90;;;22.00;45.80;;;;;;4998548;28;20559;-68
2022/03/04 12:00:29;;;;;;;26.47;15.70;;;21.20;44.70;;;;;;4991562;28;20438;-67
2022/03/04 12:02:57;;;;;;;16.60;12.17;;;21.00;44.90;;;;;;4995598;28;20511;-68
2022/03/04 12:05:30;;;;;;;28.20;13.27;;;21.70;43.60;;;;;;4991892;28;20604;-68
2022/03/04 12:08:10;;;;;;;14.97;10.83;;;21.90;43.90;;;;;;4995904;28;20968;-69
2022/03/04 12:10:47;;;;;;;16.03;10.03;;;21.60;43.80;;;;;;4997602;28;20454;-69
2022/03/04 12:13:18;;;;;;;17.57;9.80;;;22.20;43.30;;;;;;4994318;28;20492;-70
2022/03/04 12:15:49;;;;;;;17.23;11.60;;;22.10;42.60;;;;;;5001044;28;20459;-70
2022/03/04 12:18:18;;;;;;;17.90;11.07;;;22.70;42.20;;;;;;4991069;28;20470;-69
2022/03/04 12:21:16;;;;;;;16.53;10.83;;;22.10;42.10;;;;;;4994181;28;20533;-69
2022/03/04 12:24:08;;;;;;;18.40;11.07;;;22.30;40.50;;;;;;4987109;28;20552;-69
2022/03/04 12:26:37;;;;;;;15.10;10.60;;;20.80;41.30;;;;;;4991693;28;20803;-68
2022/03/04 12:29:07;;;;;;;17.00;9.40;;;21.70;41.20;;;;;;4993889;28;20454;-68
2022/03/04 12:31:39;;;;;;;15.90;10.27;;;21.40;40.30;;;;;;4999208;28;20461;-69
2022/03/04 12:34:07;;;;;;;19.40;11.33;;;21.90;40.80;;;;;;4995296;28;20485;-68
2022/03/04 12:36:34;;;;;;;11.33;8.83;;;21.10;41.10;;;;;;4993133;28;20505;-68
2022/03/04 12:39:03;;;;;;;15.07;9.77;;;21.70;41.60;;;;;;5001052;28;20441;-68
2022/03/04 12:41:32;;;;;;;18.73;10.10;;;22.00;41.00;;;;;;4993228;28;20458;-68
2022/03/04 12:44:01;;;;;;;16.90;9.37;;;21.80;40.10;;;;;;4991922;28;20453;-68
2022/03/04 12:46:30;;;;;;;15.07;11.00;;;22.20;40.60;;;;;;4992957;28;20538;-68
2022/03/04 12:48:58;;;;;;;10.27;7.83;;;22.80;39.50;;;;;;4994229;28;20508;-67